sensor_id;sensor_type;location;lat;lon;timestamp;pressure;altitude;pressure_sealevel;temperature;humidity
22255;BME280;11296;42.684;23.322;2023-02-10T18:38:54;96866.38;;;0.54;73.67
22255;BME280;11296;42.684;23.322;2023-02-10T18:41:20;96903.97;;;0.66;73.24
22255;BME280;11296;42.684;23.322;2023-02-10T18:43:46;96853.69;;;0.40;72.47
22255;BME280;11296;42.684;23.322;2023-02-10T18:46:14;96847.16;;;0.31;72.26
22255;BME280;11296;42.684;23.322;2023-02-10T18:48:39;96872.22;;;0.40;72.52
22255;BME280;11296;42.684;23.322;2023-02-10T18:51:06;96855.38;;;0.26;72.59
22255;BME280;11296;42.684;23.322;2023-02-10T18:53:33;96853.75;;;0.18;72.36
22255;BME280;11296;42.684;23.322;2023-02-10T18:56:08;96885.44;;;0.40;72.33
22255;BME280;11296;42.684;23.322;2023-02-10T18:58:35;96850.53;;;0.05;72.21
22255;BME280;11296;42.684;23.322;2023-02-10T19:01:09;96871.31;;;0.29;72.19
22255;BME280;11296;42.684;23.322;2023-02-10T19:03:37;96882.91;;;0.21;72.19
22255;BME280;11296;42.684;23.322;2023-02-10T19:06:08;96890.84;;;0.21;73.15
22255;BME280;11296;42.684;23.322;2023-02-10T19:08:35;96882.09;;;0.17;72.99
22255;BME280;11296;42.684;23.322;2023-02-10T19:11:03;96893.78;;;0.16;72.76
22255;BME280;11296;42.684;23.322;2023-02-10T19:13:29;96855.59;;;-0.09;73.33
22255;BME280;11296;42.684;23.322;2023-02-10T19:15:55;96895.25;;;0.14;73.27
22255;BME280;11296;42.684;23.322;2023-02-10T19:18:33;96894.69;;;0.01;73.04
22255;BME280;11296;42.684;23.322;2023-02-10T19:21:03;96849.38;;;-0.20;73.10
22255;BME280;11296;42.684;23.322;2023-02-10T19:23:40;96921.91;;;0.24;73.30
22255;BME280;11296;42.684;23.322;2023-02-10T19:26:07;96879.97;;;-0.19;73.31
22255;BME280;11296;42.684;23.322;2023-02-10T19:28:34;96911.19;;;-0.06;73.61
22255;BME280;11296;42.684;23.322;2023-02-10T19:31:02;96868.41;;;-0.34;73.71
22255;BME280;11296;42.684;23.322;2023-02-10T19:33:29;96899.31;;;-0.15;73.66
22255;BME280;11296;42.684;23.322;2023-02-10T19:35:56;96864.03;;;-0.45;73.30
22255;BME280;11296;42.684;23.322;2023-02-10T19:38:24;96871.56;;;-0.47;73.76
22255;BME280;11296;42.684;23.322;2023-02-10T19:41:12;96927.03;;;-0.09;73.50
22255;BME280;11296;42.684;23.322;2023-02-10T19:43:39;96937.19;;;-0.11;73.93
22255;BME280;11296;42.684;23.322;2023-02-10T19:46:05;96888.19;;;-0.47;74.01
22255;BME280;11296;42.684;23.322;2023-02-10T19:48:33;96893.66;;;-0.36;74.04
22255;BME280;11296;42.684;23.322;2023-02-10T19:51:05;96902.78;;;-0.34;73.90
22255;BME280;11296;42.684;23.322;2023-02-10T19:53:35;96888.25;;;-0.43;74.28
22255;BME280;11296;42.684;23.322;2023-02-10T19:56:05;96882.00;;;-0.54;74.67
22255;BME280;11296;42.684;23.322;2023-02-10T19:58:33;96872.84;;;-0.60;74.58
22255;BME280;11296;42.684;23.322;2023-02-10T20:01:17;96931.59;;;-0.29;74.58
22255;BME280;11296;42.684;23.322;2023-02-10T20:03:57;96899.97;;;-0.63;74.95
22255;BME280;11296;42.684;23.322;2023-02-10T20:06:39;96848.25;;;-0.84;75.40
22255;BME280;11296;42.684;23.322;2023-02-10T20:09:20;96907.75;;;-0.51;75.47
22255;BME280;11296;42.684;23.322;2023-02-10T20:11:53;96918.31;;;-0.51;76.25
22255;BME280;11296;42.684;23.322;2023-02-10T20:14:31;96927.97;;;-0.40;76.44
22255;BME280;11296;42.684;23.322;2023-02-10T20:17:12;96865.50;;;-0.90;76.13
22255;BME280;11296;42.684;23.322;2023-02-10T20:19:38;96897.13;;;-0.74;76.05
22255;BME280;11296;42.684;23.322;2023-02-10T20:22:07;96939.94;;;-0.46;76.79
22255;BME280;11296;42.684;23.322;2023-02-10T20:24:34;96907.75;;;-0.70;76.77
22255;BME280;11296;42.684;23.322;2023-02-10T20:27:04;96877.41;;;-0.99;77.03
22255;BME280;11296;42.684;23.322;2023-02-10T20:29:29;96868.00;;;-0.97;77.33
22255;BME280;11296;42.684;23.322;2023-02-10T20:31:56;96915.97;;;-0.76;77.86
22255;BME280;11296;42.684;23.322;2023-02-10T20:34:21;96896.34;;;-0.94;78.40
22255;BME280;11296;42.684;23.322;2023-02-10T20:36:48;96892.47;;;-1.00;78.76
22255;BME280;11296;42.684;23.322;2023-02-10T20:39:14;96894.69;;;-1.02;79.31
22255;BME280;11296;42.684;23.322;2023-02-10T20:41:45;96949.22;;;-0.55;79.52
22255;BME280;11296;42.684;23.322;2023-02-10T20:44:12;96887.34;;;-0.93;80.14
22255;BME280;11296;42.684;23.322;2023-02-10T20:46:41;96894.97;;;-1.07;80.47
22255;BME280;11296;42.684;23.322;2023-02-10T20:49:10;96897.81;;;-0.96;80.71
22255;BME280;11296;42.684;23.322;2023-02-10T20:51:35;96906.09;;;-0.98;81.81
22255;BME280;11296;42.684;23.322;2023-02-10T20:54:01;96939.19;;;-0.65;82.45
22255;BME280;11296;42.684;23.322;2023-02-10T20:56:27;96865.72;;;-1.17;83.18
22255;BME280;11296;42.684;23.322;2023-02-10T20:58:54;96926.97;;;-0.93;84.32
22255;BME280;11296;42.684;23.322;2023-02-10T21:01:20;96903.97;;;-1.08;85.02
22255;BME280;11296;42.684;23.322;2023-02-10T21:03:46;96862.97;;;-1.40;86.05
22255;BME280;11296;42.684;23.322;2023-02-10T21:06:17;96876.06;;;-1.28;87.10
22255;BME280;11296;42.684;23.322;2023-02-10T21:08:46;96899.25;;;-1.18;87.70
22255;BME280;11296;42.684;23.322;2023-02-10T21:11:16;96951.88;;;-0.90;88.97
22255;BME280;11296;42.684;23.322;2023-02-10T21:13:48;96882.63;;;-1.37;90.35
22255;BME280;11296;42.684;23.322;2023-02-10T21:16:16;96925.03;;;-1.11;90.92
22255;BME280;11296;42.684;23.322;2023-02-10T21:18:45;96901.75;;;-1.25;91.37
22255;BME280;11296;42.684;23.322;2023-02-10T21:21:13;96895.78;;;-1.22;92.92
22255;BME280;11296;42.684;23.322;2023-02-10T21:23:39;96873.38;;;-1.47;93.06
22255;BME280;11296;42.684;23.322;2023-02-10T21:26:04;96848.00;;;-1.52;93.27
22255;BME280;11296;42.684;23.322;2023-02-10T21:28:34;96884.09;;;-1.40;93.09
22255;BME280;11296;42.684;23.322;2023-02-10T21:31:14;96881.69;;;-1.45;94.43
22255;BME280;11296;42.684;23.322;2023-02-10T21:33:41;96882.53;;;-1.41;96.00
22255;BME280;11296;42.684;23.322;2023-02-10T21:36:24;96907.53;;;-1.19;96.13
22255;BME280;11296;42.684;23.322;2023-02-10T21:38:59;96862.97;;;-1.40;96.60
22255;BME280;11296;42.684;23.322;2023-02-10T21:41:26;96883.72;;;-1.38;97.47
22255;BME280;11296;42.684;23.322;2023-02-10T21:44:28;96906.28;;;-1.41;99.45
22255;BME280;11296;42.684;23.322;2023-02-10T21:47:03;96887.69;;;-1.48;99.69
22255;BME280;11296;42.684;23.322;2023-02-10T21:49:32;96871.94;;;-1.60;100.00
22255;BME280;11296;42.684;23.322;2023-02-10T21:52:01;96879.34;;;-1.50;100.00
22255;BME280;11296;42.684;23.322;2023-02-10T21:54:27;96891.25;;;-1.56;100.00
22255;BME280;11296;42.684;23.322;2023-02-10T21:56:56;96911.50;;;-1.44;100.00
22255;BME280;11296;42.684;23.322;2023-02-10T21:59:27;96903.94;;;-1.46;100.00
22255;BME280;11296;42.684;23.322;2023-02-10T22:01:54;96892.63;;;-1.62;100.00
22255;BME280;11296;42.684;23.322;2023-02-10T22:04:20;96925.31;;;-1.51;100.00
22255;BME280;11296;42.684;23.322;2023-02-10T22:06:45;96900.47;;;-1.50;100.00
22255;BME280;11296;42.684;23.322;2023-02-10T22:09:14;96895.22;;;-1.66;100.00
22255;BME280;11296;42.684;23.322;2023-02-10T22:11:39;96913.91;;;-1.55;100.00
22255;BME280;11296;42.684;23.322;2023-02-10T22:14:10;96943.94;;;-1.44;100.00
22255;BME280;11296;42.684;23.322;2023-02-10T22:16:41;96852.03;;;-1.92;100.00
22255;BME280;11296;42.684;23.322;2023-02-10T22:19:13;96925.31;;;-1.51;100.00
22255;BME280;11296;42.684;23.322;2023-02-10T22:21:39;96885.69;;;-1.70;100.00
22255;BME280;11296;42.684;23.322;2023-02-10T22:24:05;96900.38;;;-1.69;100.00
22255;BME280;11296;42.684;23.322;2023-02-10T22:26:32;96897.44;;;-1.68;100.00
22255;BME280;11296;42.684;23.322;2023-02-10T22:28:58;96904.16;;;-1.70;100.00
22255;BME280;11296;42.684;23.322;2023-02-10T22:31:27;96935.88;;;-1.51;100.00
22255;BME280;11296;42.684;23.322;2023-02-10T22:33:56;96894.38;;;-1.85;100.00
22255;BME280;11296;42.684;23.322;2023-02-10T22:36:22;96925.25;;;-1.86;100.00
22255;BME280;11296;42.684;23.322;2023-02-10T22:38:51;96906.88;;;-1.98;100.00
22255;BME280;11296;42.684;23.322;2023-02-10T22:41:25;96887.91;;;-2.03;100.00
22255;BME280;11296;42.684;23.322;2023-02-10T22:43:53;96881.63;;;-2.14;100.00
22255;BME280;11296;42.684;23.322;2023-02-10T22:46:20;96898.72;;;-2.08;100.00
22255;BME280;11296;42.684;23.322;2023-02-10T22:48:50;96916.16;;;-1.88;100.00
22255;BME280;11296;42.684;23.322;2023-02-10T22:51:35;96873.28;;;-2.16;100.00
22255;BME280;11296;42.684;23.322;2023-02-10T22:54:05;96892.78;;;-2.05;100.00
22255;BME280;11296;42.684;23.322;2023-02-10T22:56:34;96847.19;;;-2.37;100.00
22255;BME280;11296;42.684;23.322;2023-02-10T22:59:00;96871.91;;;-2.42;100.00
22255;BME280;11296;42.684;23.322;2023-02-10T23:03:52;96929.09;;;-1.83;100.00
22255;BME280;11296;42.684;23.322;2023-02-10T23:06:18;96947.56;;;-1.83;100.00
22255;BME280;11296;42.684;23.322;2023-02-10T23:08:45;96876.09;;;-2.09;100.00
22255;BME280;11296;42.684;23.322;2023-02-10T23:11:14;96896.06;;;-2.08;100.00
22255;BME280;11296;42.684;23.322;2023-02-10T23:13:40;96883.13;;;-2.13;100.00
22255;BME280;11296;42.684;23.322;2023-02-10T23:16:06;96879.75;;;-2.30;100.00
22255;BME280;11296;42.684;23.322;2023-02-10T23:18:32;96893.34;;;-2.28;100.00
22255;BME280;11296;42.684;23.322;2023-02-10T23:20:58;96888.25;;;-2.20;100.00
22255;BME280;11296;42.684;23.322;2023-02-10T23:23:24;96905.16;;;-2.21;100.00
22255;BME280;11296;42.684;23.322;2023-02-10T23:25:52;96866.81;;;-2.35;100.00
22255;BME280;11296;42.684;23.322;2023-02-10T23:28:22;96928.38;;;-1.96;100.00
22255;BME280;11296;42.684;23.322;2023-02-10T23:30:48;96886.13;;;-2.31;100.00
22255;BME280;11296;42.684;23.322;2023-02-10T23:33:14;96916.97;;;-2.15;100.00
22255;BME280;11296;42.684;23.322;2023-02-10T23:35:47;96882.38;;;-2.30;100.00
22255;BME280;11296;42.684;23.322;2023-02-10T23:38:16;96935.88;;;-1.98;100.00
22255;BME280;11296;42.684;23.322;2023-02-10T23:40:42;96884.50;;;-2.35;100.00
22255;BME280;11296;42.684;23.322;2023-02-10T23:43:09;96882.47;;;-2.26;100.00
22255;BME280;11296;42.684;23.322;2023-02-10T23:45:37;96874.97;;;-2.40;100.00
22255;BME280;11296;42.684;23.322;2023-02-10T23:48:05;96855.59;;;-2.47;100.00
22255;BME280;11296;42.684;23.322;2023-02-10T23:50:31;96872.09;;;-2.35;100.00
22255;BME280;11296;42.684;23.322;2023-02-10T23:52:57;96906.78;;;-2.33;100.00
22255;BME280;11296;42.684;23.322;2023-02-10T23:55:22;96852.69;;;-2.58;100.00
22255;BME280;11296;42.684;23.322;2023-02-10T23:57:48;96881.25;;;-2.44;100.00
